createdAt,value
2023-01-24T00:01:40.225Z,8.83
2023-01-24T00:04:13.208Z,17.50
2023-01-24T00:06:45.906Z,11.73
2023-01-24T00:09:18.750Z,14.45
2023-01-24T00:11:51.542Z,20.43
2023-01-24T00:14:24.397Z,16.82
2023-01-24T00:16:57.225Z,18.10
2023-01-24T00:19:30.152Z,15.50
2023-01-24T00:22:05.494Z,14.87
2023-01-24T00:24:38.613Z,10.75
2023-01-24T00:27:11.700Z,22.80
2023-01-24T00:29:44.503Z,18.48
2023-01-24T00:32:17.306Z,14.58
2023-01-24T00:34:50.185Z,15.53
2023-01-24T00:37:23.817Z,11.73
2023-01-24T00:39:56.904Z,11.95
2023-01-24T00:42:29.968Z,14.65
2023-01-24T00:45:04.455Z,16.73
2023-01-24T00:50:11.641Z,17.27
2023-01-24T00:52:45.293Z,16.67
2023-01-24T00:55:19.845Z,16.45
2023-01-24T00:57:52.859Z,16.77
2023-01-24T01:00:27.411Z,16.65
2023-01-24T01:03:00.365Z,15.47
2023-01-24T01:05:33.480Z,16.40
2023-01-24T01:08:06.859Z,14.18
2023-01-24T01:10:40.594Z,12.63
2023-01-24T01:13:15.537Z,19.40
2023-01-24T01:15:48.462Z,18.65
2023-01-24T01:18:21.656Z,15.35
2023-01-24T01:20:54.914Z,15.58
2023-01-24T01:23:27.845Z,18.45
2023-01-24T01:26:06.883Z,17.90
2023-01-24T01:28:40.084Z,14.43
2023-01-24T01:31:13.004Z,17.17
2023-01-24T01:33:48.872Z,19.98
2023-01-24T01:36:21.622Z,14.15
2023-01-24T01:38:54.700Z,13.45
2023-01-24T01:41:28.505Z,15.55
2023-01-24T01:44:40.925Z,14.00
2023-01-24T01:47:36.510Z,10.32
2023-01-24T01:50:30.390Z,14.38
2023-01-24T01:53:03.908Z,22.15
2023-01-24T01:55:38.650Z,16.12
2023-01-24T01:58:11.387Z,16.82
2023-01-24T02:00:46.033Z,19.98
2023-01-24T02:03:41.634Z,21.68
2023-01-24T02:06:34.120Z,20.45
2023-01-24T02:09:08.035Z,15.38
2023-01-24T02:11:42.253Z,17.17
2023-01-24T02:14:37.182Z,18.82
2023-01-24T02:17:10.212Z,14.05
2023-01-24T02:19:59.805Z,16.15
2023-01-24T02:22:49.782Z,19.15
2023-01-24T02:26:04.300Z,16.07
2023-01-24T02:28:39.661Z,15.50
2023-01-24T02:31:12.591Z,14.87
2023-01-24T02:33:45.890Z,20.57
2023-01-24T02:36:42.392Z,13.72
2023-01-24T02:39:19.064Z,15.03
2023-01-24T02:42:10.768Z,18.67
2023-01-24T02:44:52.621Z,15.43
2023-01-24T02:47:29.365Z,17.30
2023-01-24T02:50:02.954Z,14.45
2023-01-24T02:52:54.245Z,15.85
2023-01-24T02:55:27.646Z,14.23
2023-01-24T02:58:07.337Z,26.87
2023-01-24T03:00:44.139Z,24.05
2023-01-24T03:03:18.542Z,18.40
2023-01-24T03:06:01.823Z,29.45
2023-01-24T03:08:42.619Z,32.00
2023-01-24T03:11:17.308Z,18.17
2023-01-24T03:14:08.415Z,19.07
2023-01-24T03:16:59.993Z,22.07
2023-01-24T03:19:51.483Z,21.42
2023-01-24T03:22:42.383Z,19.92
2023-01-24T03:25:33.288Z,18.30
2023-01-24T03:28:25.848Z,23.70
2023-01-24T03:31:16.638Z,26.05
2023-01-24T03:34:07.461Z,20.65
2023-01-24T03:36:40.484Z,18.67
2023-01-24T03:39:32.273Z,16.95
2023-01-24T03:42:05.967Z,21.00
2023-01-24T03:44:39.303Z,30.95
2023-01-24T03:47:12.089Z,28.65
2023-01-24T03:50:03.087Z,23.47
2023-01-24T03:52:36.540Z,20.40
2023-01-24T03:55:11.756Z,24.63
2023-01-24T03:57:46.914Z,22.73
2023-01-24T04:00:21.283Z,24.82
2023-01-24T04:02:56.197Z,28.65
2023-01-24T04:05:29.354Z,25.60
2023-01-24T04:08:02.397Z,27.73
2023-01-24T04:10:35.491Z,20.02
2023-01-24T04:13:08.381Z,23.37
2023-01-24T04:15:42.917Z,25.08
2023-01-24T04:18:29.714Z,20.95
2023-01-24T04:21:06.956Z,23.38
2023-01-24T04:23:41.593Z,25.68
2023-01-24T04:26:15.418Z,24.63
2023-01-24T04:28:48.684Z,28.45
2023-01-24T04:31:22.314Z,22.90
2023-01-24T04:34:11.822Z,21.70
2023-01-24T04:36:44.537Z,25.40
2023-01-24T04:39:18.049Z,23.47
2023-01-24T04:41:52.402Z,34.35
2023-01-24T04:44:25.406Z,28.00
2023-01-24T04:46:58.770Z,29.52
2023-01-24T04:49:31.864Z,29.67
2023-01-24T04:52:04.691Z,31.17
2023-01-24T04:54:43.166Z,24.95
2023-01-24T04:57:16.048Z,37.38
2023-01-24T04:59:49.280Z,41.40
2023-01-24T05:02:24.571Z,42.10
2023-01-24T05:04:57.976Z,49.35
2023-01-24T05:07:31.565Z,33.95
2023-01-24T05:10:06.791Z,35.45
2023-01-24T05:12:41.114Z,40.20
2023-01-24T05:15:15.726Z,34.50
2023-01-24T05:17:49.096Z,21.48
2023-01-24T05:20:23.778Z,30.55
2023-01-24T05:23:00.838Z,30.68
2023-01-24T05:25:34.538Z,26.30
2023-01-24T05:28:08.425Z,24.98
2023-01-24T05:30:43.241Z,25.88
2023-01-24T05:33:17.779Z,19.25
2023-01-24T05:35:51.081Z,35.88
2023-01-24T05:38:24.050Z,23.60
2023-01-24T05:41:08.521Z,31.77
2023-01-24T05:43:42.053Z,21.55
2023-01-24T05:46:22.403Z,27.17
2023-01-24T05:48:57.461Z,22.48
2023-01-24T05:51:30.850Z,25.57
2023-01-24T05:54:03.853Z,18.80
2023-01-24T05:56:54.981Z,30.95
2023-01-24T05:59:28.293Z,28.85
2023-01-24T06:02:02.555Z,21.02
2023-01-24T06:04:35.893Z,23.10
2023-01-24T06:07:08.859Z,24.17
2023-01-24T06:09:41.994Z,27.58
2023-01-24T06:12:15.095Z,23.73
2023-01-24T06:14:48.624Z,15.93
2023-01-24T06:17:21.721Z,21.80
2023-01-24T06:19:55.155Z,19.70
2023-01-24T06:22:52.972Z,28.35
2023-01-24T06:25:28.636Z,33.15
2023-01-24T06:28:02.103Z,31.77
2023-01-24T06:30:35.727Z,28.02
2023-01-24T06:33:33.965Z,17.40
2023-01-24T06:36:32.368Z,27.75
2023-01-24T06:39:07.873Z,21.15
2023-01-24T06:41:41.171Z,23.77
2023-01-24T06:44:14.654Z,29.23
2023-01-24T06:46:48.058Z,19.92
2023-01-24T06:49:21.000Z,20.00
2023-01-24T06:51:54.524Z,22.27
2023-01-24T06:54:27.284Z,18.80
2023-01-24T06:57:00.092Z,18.00
2023-01-24T06:59:34.479Z,22.30
2023-01-24T07:02:07.886Z,17.50
2023-01-24T07:04:41.475Z,22.42
2023-01-24T07:07:15.375Z,22.05
2023-01-24T07:09:48.256Z,16.32
2023-01-24T07:12:21.099Z,23.65
2023-01-24T07:14:54.098Z,30.72
2023-01-24T07:17:27.221Z,24.50
2023-01-24T07:20:01.140Z,25.57
2023-01-24T07:22:37.184Z,21.48
2023-01-24T07:25:22.464Z,20.37
2023-01-24T07:27:55.868Z,23.18
2023-01-24T07:30:30.385Z,20.90
2023-01-24T07:33:04.041Z,23.67
2023-01-24T07:35:37.585Z,21.90
2023-01-24T07:38:10.989Z,18.62
2023-01-24T07:40:44.384Z,24.02
2023-01-24T07:43:17.643Z,27.95
2023-01-24T07:45:52.856Z,24.23
2023-01-24T07:48:25.918Z,25.85
2023-01-24T07:51:03.201Z,21.80
2023-01-24T07:53:36.773Z,28.10
2023-01-24T07:56:17.563Z,27.65
2023-01-24T07:58:45.655Z,24.90
2023-01-24T08:01:24.926Z,34.60
2023-01-24T08:03:59.689Z,25.48
2023-01-24T08:06:33.088Z,27.67
2023-01-24T08:09:07.103Z,23.00
2023-01-24T08:11:40.112Z,23.65
2023-01-24T08:14:13.349Z,23.25
2023-01-24T08:16:46.257Z,27.73
2023-01-24T08:19:34.533Z,29.67
2023-01-24T08:21:53.876Z,29.05
2023-01-24T08:24:27.456Z,21.25
2023-01-24T08:27:01.871Z,21.00
2023-01-24T08:29:35.571Z,27.50
2023-01-24T08:32:08.609Z,16.70
2023-01-24T08:34:41.725Z,19.52
2023-01-24T08:37:14.587Z,22.07
2023-01-24T08:39:47.879Z,17.73
2023-01-24T08:42:21.282Z,21.67
2023-01-24T08:44:54.347Z,18.37
2023-01-24T08:47:28.513Z,21.07
2023-01-24T08:50:02.167Z,19.12
2023-01-24T08:55:08.475Z,14.38
2023-01-24T08:57:41.655Z,17.52
2023-01-24T09:00:16.180Z,18.90
2023-01-24T09:05:21.812Z,36.28
2023-01-24T09:07:54.731Z,49.67
2023-01-24T09:10:27.779Z,70.00
2023-01-24T09:13:01.125Z,53.28
2023-01-24T09:15:34.857Z,47.85
2023-01-24T09:18:08.076Z,54.70
2023-01-24T09:20:41.617Z,43.58
2023-01-24T09:23:16.088Z,49.85
2023-01-24T09:25:54.345Z,36.55
2023-01-24T09:28:27.423Z,42.80
2023-01-24T09:31:00.419Z,58.20
2023-01-24T09:33:33.932Z,46.55
2023-01-24T09:36:07.253Z,44.50
2023-01-24T09:38:40.304Z,47.23
2023-01-24T09:41:42.437Z,41.20
2023-01-24T09:44:24.853Z,43.13
2023-01-24T09:46:58.631Z,37.23
2023-01-24T09:49:51.188Z,31.82
2023-01-24T09:52:39.908Z,31.57
2023-01-24T09:55:27.445Z,28.75
2023-01-24T09:58:34.397Z,29.42
2023-01-24T10:01:14.011Z,66.90
2023-01-24T10:03:47.502Z,35.73
2023-01-24T10:06:24.837Z,24.98
2023-01-24T10:09:05.509Z,28.52
2023-01-24T10:11:57.887Z,37.73
2023-01-24T10:14:53.391Z,24.40
2023-01-24T10:17:53.504Z,30.27
2023-01-24T10:20:49.251Z,27.02
2023-01-24T10:23:27.192Z,28.30
2023-01-24T10:26:22.721Z,32.10
2023-01-24T10:28:58.933Z,26.15
2023-01-24T10:31:39.374Z,29.82
2023-01-24T10:34:40.771Z,35.83
2023-01-24T10:37:23.107Z,27.82
2023-01-24T10:39:56.134Z,22.73
2023-01-24T10:42:32.259Z,15.10
2023-01-24T10:45:22.489Z,18.75
2023-01-24T10:48:02.543Z,28.42
2023-01-24T10:50:45.233Z,27.42
2023-01-24T10:53:31.036Z,36.23
2023-01-24T10:56:05.938Z,23.02
2023-01-24T10:59:04.455Z,25.90
2023-01-24T11:01:49.168Z,47.08
2023-01-24T11:04:26.792Z,32.28
2023-01-24T11:06:59.620Z,27.60
2023-01-24T11:09:35.730Z,30.15
2023-01-24T11:12:10.657Z,55.10
2023-01-24T11:14:43.566Z,21.35
2023-01-24T11:17:39.058Z,29.18
2023-01-24T11:20:30.999Z,63.68
2023-01-24T11:23:17.916Z,36.13
2023-01-24T11:26:01.558Z,74.05
2023-01-24T11:28:37.994Z,94.75
2023-01-24T11:31:24.327Z,34.27
2023-01-24T11:34:43.822Z,26.27
2023-01-24T11:37:24.282Z,21.73
2023-01-24T11:40:16.578Z,21.50
2023-01-24T11:43:13.444Z,30.85
2023-01-24T11:45:59.404Z,31.65
2023-01-24T11:48:57.888Z,38.63
2023-01-24T11:52:05.375Z,37.98
2023-01-24T11:55:05.889Z,33.13
2023-01-24T11:57:55.606Z,29.35
2023-01-24T12:00:41.654Z,32.25
2023-01-24T12:03:41.419Z,28.45
2023-01-24T12:06:31.737Z,23.57
2023-01-24T12:09:22.987Z,38.28
2023-01-24T12:12:13.013Z,30.02
2023-01-24T12:15:16.082Z,36.25
2023-01-24T12:18:06.004Z,22.67
2023-01-24T12:21:02.281Z,37.08
2023-01-24T12:23:55.583Z,26.02
2023-01-24T12:26:32.602Z,31.50
2023-01-24T12:29:27.135Z,34.73
2023-01-24T12:32:31.669Z,36.45
2023-01-24T12:35:30.310Z,34.88
2023-01-24T12:38:28.865Z,33.50
2023-01-24T12:41:38.196Z,28.42
2023-01-24T12:44:33.505Z,26.57
2023-01-24T12:47:25.903Z,48.80
2023-01-24T12:50:40.633Z,27.75
2023-01-24T12:53:42.687Z,31.77
2023-01-24T12:56:35.192Z,34.95
2023-01-24T12:59:11.986Z,31.45
2023-01-24T13:02:23.505Z,35.13
2023-01-24T13:05:30.288Z,43.73
2023-01-24T13:08:17.457Z,30.05
2023-01-24T13:11:25.056Z,35.25
2023-01-24T13:14:20.072Z,45.98
2023-01-24T13:17:17.041Z,50.17
2023-01-24T13:20:06.510Z,40.90
2023-01-24T13:23:01.189Z,37.25
2023-01-24T13:25:38.817Z,23.20
2023-01-24T13:28:42.541Z,28.50
2023-01-24T13:31:53.233Z,44.50
2023-01-24T13:34:30.442Z,51.42
2023-01-24T13:37:05.015Z,42.62
2023-01-24T13:39:47.321Z,43.42
2023-01-24T13:42:24.865Z,25.57
2023-01-24T13:44:57.613Z,38.48
2023-01-24T13:47:36.156Z,42.00
2023-01-24T13:50:18.572Z,44.60
2023-01-24T13:52:57.920Z,43.33
2023-01-24T13:55:35.559Z,54.83
2023-01-24T13:58:21.676Z,36.93
2023-01-24T14:00:57.996Z,40.17
2023-01-24T14:03:38.174Z,45.80
2023-01-24T14:06:14.951Z,48.75
2023-01-24T14:08:57.929Z,42.93
2023-01-24T14:11:36.855Z,42.90
2023-01-24T14:14:32.687Z,47.48
2023-01-24T14:17:28.682Z,48.33
2023-01-24T14:20:01.649Z,64.50
2023-01-24T14:25:33.861Z,41.23
2023-01-24T14:28:27.478Z,50.95
2023-01-24T14:31:09.064Z,49.03
2023-01-24T14:34:04.794Z,47.55
2023-01-24T14:36:40.164Z,61.90
2023-01-24T14:39:27.971Z,48.17
2023-01-24T14:42:04.243Z,94.55
2023-01-24T14:44:58.621Z,70.67
2023-01-24T14:47:32.049Z,47.67
2023-01-24T14:50:06.355Z,41.08
2023-01-24T14:52:41.059Z,44.15
2023-01-24T14:55:21.533Z,41.83
2023-01-24T14:57:54.622Z,37.38
2023-01-24T15:00:28.123Z,35.25
2023-01-24T15:03:06.996Z,43.00
2023-01-24T15:05:41.585Z,47.93
2023-01-24T15:08:19.260Z,51.70
2023-01-24T15:11:02.331Z,80.12
2023-01-24T15:13:48.111Z,73.92
2023-01-24T15:16:28.654Z,58.10
2023-01-24T15:19:08.387Z,58.20
2023-01-24T15:21:44.651Z,74.70
2023-01-24T15:24:30.426Z,103.65
2023-01-24T15:27:06.950Z,103.75
2023-01-24T15:29:48.964Z,95.20
2023-01-24T15:32:31.904Z,91.12
2023-01-24T15:35:30.331Z,64.20
2023-01-24T15:38:13.513Z,73.92
2023-01-24T15:41:03.805Z,84.72
2023-01-24T15:43:50.656Z,92.50
2023-01-24T15:46:47.204Z,106.32
2023-01-24T15:49:36.305Z,91.08
2023-01-24T15:52:19.950Z,93.80
2023-01-24T15:55:01.864Z,67.37
2023-01-24T15:57:38.361Z,45.70
2023-01-24T16:00:16.050Z,48.85
2023-01-24T16:02:49.584Z,64.58
2023-01-24T16:05:23.423Z,68.67
2023-01-24T16:07:56.308Z,69.25
2023-01-24T16:10:29.602Z,70.73
2023-01-24T16:13:03.571Z,78.30
2023-01-24T16:15:36.858Z,62.80
2023-01-24T16:18:11.809Z,58.48
2023-01-24T16:20:44.545Z,68.78
2023-01-24T16:23:17.492Z,64.27
2023-01-24T16:25:54.206Z,89.47
2023-01-24T16:28:29.266Z,80.70
2023-01-24T16:31:06.302Z,64.10
2023-01-24T16:33:39.889Z,57.90
2023-01-24T16:36:17.105Z,76.05
2023-01-24T16:38:50.097Z,52.10
2023-01-24T16:41:23.642Z,41.53
2023-01-24T16:43:57.267Z,40.80
2023-01-24T16:46:30.237Z,37.00
2023-01-24T16:49:03.052Z,46.10
2023-01-24T16:51:36.051Z,34.08
2023-01-24T16:54:08.707Z,43.87
2023-01-24T16:56:43.815Z,46.35
2023-01-24T16:59:16.660Z,80.28
2023-01-24T17:01:50.698Z,156.65
2023-01-24T17:04:24.098Z,156.35
2023-01-24T17:07:04.753Z,79.95
2023-01-24T17:09:38.406Z,33.30
2023-01-24T17:12:14.711Z,24.30
2023-01-24T17:14:47.407Z,32.93
2023-01-24T17:17:20.222Z,35.40
2023-01-24T17:19:53.217Z,32.23
2023-01-24T17:22:26.185Z,27.30
2023-01-24T17:24:59.095Z,32.48
2023-01-24T17:27:32.995Z,42.23
2023-01-24T17:30:07.351Z,31.15
2023-01-24T17:32:40.732Z,39.00
2023-01-24T17:35:14.209Z,31.27
2023-01-24T17:37:47.285Z,28.40
2023-01-24T17:40:20.233Z,38.35
2023-01-24T17:42:53.261Z,27.30
2023-01-24T17:45:26.733Z,30.17
2023-01-24T17:47:59.919Z,36.40
2023-01-24T17:50:33.064Z,31.00
2023-01-24T17:53:05.899Z,26.70
2023-01-24T17:55:39.390Z,28.25
2023-01-24T17:58:13.503Z,24.30
2023-01-24T18:00:46.901Z,32.98
2023-01-24T18:03:21.504Z,36.43
2023-01-24T18:05:55.765Z,36.90
2023-01-24T18:08:28.917Z,38.92
2023-01-24T18:11:13.446Z,47.38
2023-01-24T18:13:47.035Z,28.47
2023-01-24T18:16:22.556Z,30.55
2023-01-24T18:18:55.601Z,26.73
2023-01-24T18:21:29.148Z,33.40
2023-01-24T18:24:03.737Z,29.70
2023-01-24T18:26:38.833Z,35.48
2023-01-24T18:29:12.459Z,39.35
2023-01-24T18:31:47.710Z,54.53
2023-01-24T18:34:20.715Z,63.87
2023-01-24T18:36:53.783Z,91.43
2023-01-24T18:39:26.899Z,84.22
2023-01-24T18:42:04.780Z,83.62
2023-01-24T18:44:39.412Z,47.88
2023-01-24T18:47:12.548Z,66.57
2023-01-24T18:49:46.169Z,67.05
2023-01-24T18:52:19.875Z,66.02
2023-01-24T18:54:52.755Z,63.15
2023-01-24T18:57:25.888Z,70.92
2023-01-24T18:59:58.649Z,95.87
2023-01-24T19:02:31.566Z,114.42
2023-01-24T19:05:05.848Z,131.45
2023-01-24T19:10:16.013Z,112.08
2023-01-24T19:12:49.415Z,66.00
2023-01-24T19:15:23.014Z,78.42
2023-01-24T19:17:56.307Z,66.28
2023-01-24T19:20:29.166Z,74.40
2023-01-24T19:23:02.343Z,63.65
2023-01-24T19:25:35.282Z,72.75
2023-01-24T19:28:08.304Z,60.20
2023-01-24T19:30:41.722Z,73.17
2023-01-24T19:33:14.762Z,71.60
2023-01-24T19:35:48.273Z,76.40
2023-01-24T19:38:21.819Z,87.62
2023-01-24T19:40:54.834Z,139.10
2023-01-24T19:43:29.593Z,130.22
2023-01-24T19:46:10.871Z,137.75
2023-01-24T19:48:38.023Z,144.40
2023-01-24T19:51:12.832Z,147.97
2023-01-24T19:53:46.083Z,119.35
2023-01-24T19:56:19.581Z,98.82
2023-01-24T19:58:52.431Z,91.65
2023-01-24T20:01:25.725Z,105.65
2023-01-24T20:04:21.534Z,116.08
2023-01-24T20:06:34.826Z,102.30
2023-01-24T20:09:08.799Z,106.65
2023-01-24T20:11:42.540Z,93.15
2023-01-24T20:14:15.863Z,105.15
2023-01-24T20:16:48.888Z,96.45
2023-01-24T20:19:28.533Z,106.40
2023-01-24T20:21:57.692Z,91.30
2023-01-24T20:24:31.360Z,100.65
2023-01-24T20:27:04.177Z,91.50
2023-01-24T20:29:37.231Z,81.45
2023-01-24T20:32:12.492Z,84.05
2023-01-24T20:34:46.346Z,71.85
2023-01-24T20:37:19.289Z,63.68
2023-01-24T20:39:52.379Z,87.10
2023-01-24T20:42:25.369Z,75.70
2023-01-24T20:44:58.314Z,56.53
2023-01-24T20:47:31.323Z,73.50
2023-01-24T20:50:05.290Z,65.77
2023-01-24T20:52:38.476Z,70.00
2023-01-24T20:55:11.863Z,65.47
2023-01-24T20:57:44.974Z,58.38
2023-01-24T21:00:19.184Z,90.57
2023-01-24T21:02:57.368Z,105.83
2023-01-24T21:05:33.774Z,86.05
2023-01-24T21:08:06.951Z,73.05
2023-01-24T21:10:48.919Z,55.23
2023-01-24T21:13:32.481Z,48.65
2023-01-24T21:15:57.075Z,50.63
2023-01-24T21:18:29.855Z,49.70
2023-01-24T21:21:02.807Z,48.75
2023-01-24T21:23:37.447Z,55.35
2023-01-24T21:26:12.783Z,39.53
2023-01-24T21:28:49.860Z,47.62
2023-01-24T21:31:24.862Z,45.67
2023-01-24T21:33:58.019Z,48.25
2023-01-24T21:36:32.592Z,49.73
2023-01-24T21:39:08.631Z,54.55
2023-01-24T21:41:57.187Z,64.87
2023-01-24T21:44:36.386Z,63.92
2023-01-24T21:47:11.640Z,69.15
2023-01-24T21:49:45.048Z,65.32
2023-01-24T21:52:18.637Z,66.12
2023-01-24T21:54:51.780Z,125.73
2023-01-24T21:57:42.334Z,204.25
2023-01-24T22:00:18.147Z,305.83
2023-01-24T22:02:53.012Z,208.85
2023-01-24T22:05:26.350Z,120.15
2023-01-24T22:07:59.490Z,88.72
2023-01-24T22:10:32.377Z,96.45
2023-01-24T22:13:05.593Z,107.67
2023-01-24T22:15:39.593Z,132.52
2023-01-24T22:18:14.148Z,137.57
2023-01-24T22:20:47.200Z,121.70
2023-01-24T22:23:24.759Z,114.40
2023-01-24T22:26:08.369Z,93.42
2023-01-24T22:28:41.781Z,68.85
2023-01-24T22:31:15.557Z,53.95
2023-01-24T22:33:48.897Z,52.85
2023-01-24T22:36:22.152Z,65.35
2023-01-24T22:38:55.128Z,59.42
2023-01-24T22:41:28.001Z,59.33
2023-01-24T22:44:00.812Z,50.40
2023-01-24T22:46:33.707Z,41.73
2023-01-24T22:49:06.745Z,35.30
2023-01-24T22:51:39.610Z,36.53
2023-01-24T22:54:12.707Z,33.63
2023-01-24T22:56:45.759Z,33.70
2023-01-24T22:59:18.804Z,30.10
2023-01-24T23:04:24.842Z,29.00
2023-01-24T23:06:57.634Z,35.80
2023-01-24T23:09:30.419Z,40.67
2023-01-24T23:12:03.346Z,44.93
2023-01-24T23:14:55.131Z,53.63
2023-01-24T23:17:28.744Z,52.78
2023-01-24T23:20:19.230Z,43.13
2023-01-24T23:22:52.165Z,44.70
2023-01-24T23:25:26.118Z,44.80
2023-01-24T23:27:59.412Z,45.33
2023-01-24T23:31:04.488Z,48.45
2023-01-24T23:33:43.270Z,46.83
2023-01-24T23:36:16.094Z,43.95
2023-01-24T23:38:49.003Z,41.48
2023-01-24T23:41:21.834Z,39.53
2023-01-24T23:43:54.632Z,45.28
2023-01-24T23:46:27.632Z,38.20
2023-01-24T23:49:00.646Z,34.23
2023-01-24T23:51:33.761Z,38.35
2023-01-24T23:54:06.723Z,35.48
2023-01-24T23:56:40.055Z,41.90
2023-01-24T23:59:12.871Z,39.75
